Time;durP1;ratioP1;P1;durP2;ratioP2;P2;SDS_P1;SDS_P2;PMS_P1;PMS_P2;Temp;Humidity;BMP_temperature;BMP_pressure;BME280_temperature;BME280_humidity;BME280_pressure;Samples;Min_cycle;Max_cycle;Signal;HPM_P1;HPM_P2
2023/10/02 00:01:51;;;;;;;14.98;10.35;;;;;;;14.55;100.00;101981.25;6242543;23;20345;-67
2023/10/02 00:04:20;;;;;;;15.70;11.35;;;;;;;14.50;100.00;101983.94;6216698;23;20170;-67
2023/10/02 00:06:50;;;;;;;17.30;11.18;;;;;;;14.56;100.00;101983.88;6193006;23;20012;-67
2023/10/02 00:09:20;;;;;;;;;;;;;;;14.66;100.00;101981.19;6243116;22;20365;-67
2023/10/02 00:11:46;;;;;;;17.20;11.32;;;;;;;14.50;100.00;101978.66;6243217;23;19916;-67
2023/10/02 00:14:18;;;;;;;14.55;11.00;;;;;;;14.26;100.00;101984.19;6241728;23;20008;-67
2023/10/02 00:17:06;;;;;;;16.30;11.00;;;;;;;14.36;100.00;101985.84;6218752;23;20039;-67
2023/10/02 00:19:46;;;;;;;15.45;10.55;;;;;;;14.30;100.00;101989.41;6240778;23;20016;-67
2023/10/02 00:22:41;;;;;;;16.85;11.05;;;;;;;14.40;100.00;101974.38;6242260;23;20369;-67
2023/10/02 00:25:19;;;;;;;17.83;11.27;;;;;;;14.32;100.00;101978.84;6242206;23;20427;-67
2023/10/02 00:27:51;;;;;;;16.88;10.85;;;;;;;14.36;100.00;101978.78;6242492;22;20079;-67
2023/10/02 00:30:22;;;;;;;18.73;11.50;;;;;;;14.20;100.00;101978.06;6217355;23;20019;-67
2023/10/02 00:32:48;;;;;;;;;;;;;;;14.42;100.00;101979.63;6242926;23;20054;-66
2023/10/02 00:35:15;;;;;;;18.15;12.27;;;;;;;14.35;100.00;101986.72;6242373;23;19903;-66
2023/10/02 00:37:44;;;;;;;16.15;11.98;;;;;;;14.31;100.00;101977.97;6216929;23;20008;-66
2023/10/02 00:40:26;;;;;;;19.88;11.48;;;;;;;14.32;100.00;101973.56;6218362;23;20077;-66
2023/10/02 00:42:59;;;;;;;16.77;11.68;;;;;;;14.37;100.00;101983.19;6242539;23;20479;-66
2023/10/02 00:45:42;;;;;;;18.17;12.23;;;;;;;14.34;100.00;101977.09;6241899;23;20003;-66
2023/10/02 00:48:26;;;;;;;19.80;12.18;;;;;;;14.17;100.00;101971.97;6220683;23;20515;-66
2023/10/02 00:51:05;;;;;;;17.05;12.18;;;;;;;14.07;100.00;101962.38;6221762;23;20019;-66
2023/10/02 00:53:48;;;;;;;17.98;11.75;;;;;;;13.93;100.00;101959.84;6218643;23;20015;-66
2023/10/02 00:56:23;;;;;;;16.30;11.18;;;;;;;13.76;100.00;101960.84;6243335;23;20031;-66
2023/10/02 00:59:00;;;;;;;17.60;11.57;;;;;;;14.00;100.00;101961.56;6220965;23;20338;-66
2023/10/02 01:01:27;;;;;;;16.92;10.88;;;;;;;13.92;100.00;101960.72;6220345;23;20012;-66
2023/10/02 01:04:23;;;;;;;16.75;11.73;;;;;;;14.04;100.00;101973.81;6244101;23;20008;-66
2023/10/02 01:06:54;;;;;;;18.73;12.85;;;;;;;14.14;100.00;101961.44;6244922;23;20031;-66
2023/10/02 01:09:39;;;;;;;19.20;13.35;;;;;;;14.07;100.00;101962.38;6246113;22;20004;-66
2023/10/02 01:12:11;;;;;;;18.85;12.13;;;;;;;14.15;100.00;101961.44;6244074;23;20011;-69
2023/10/02 01:14:52;;;;;;;22.13;13.00;;;;;;;14.19;100.00;101957.00;6245744;22;20000;-70
2023/10/02 01:17:21;;;;;;;19.27;12.50;;;;;;;14.20;100.00;101953.47;6221718;22;20008;-70
2023/10/02 01:19:53;;;;;;;18.10;12.43;;;;;;;14.19;100.00;101957.00;6244277;23;20020;-70
2023/10/02 01:22:31;;;;;;;17.67;12.55;;;;;;;14.26;100.00;101953.41;6220238;23;20008;-70
2023/10/02 01:25:13;;;;;;;18.27;12.48;;;;;;;14.26;100.00;101957.81;6244208;23;20087;-67
2023/10/02 01:27:46;;;;;;;18.63;12.80;;;;;;;14.29;100.00;101952.50;6221217;23;20150;-67
2023/10/02 01:30:16;;;;;;;17.85;12.50;;;;;;;14.24;100.00;101954.31;6244101;23;20090;-67
2023/10/02 01:35:59;;;;;;;19.00;12.63;;;;;;;14.26;100.00;101961.31;6223674;22;20292;-67
2023/10/02 01:38:30;;;;;;;18.40;11.95;;;;;;;14.18;100.00;101956.13;6244115;22;20016;-66
2023/10/02 01:41:10;;;;;;;18.75;12.85;;;;;;;14.23;100.00;101948.16;6244116;23;20168;-66
2023/10/02 01:43:40;;;;;;;18.70;11.50;;;;;;;14.23;100.00;101950.81;6220932;23;20438;-66
2023/10/02 01:46:07;;;;;;;20.20;12.30;;;;;;;14.26;100.00;101952.53;6242932;23;20027;-67
2023/10/02 01:48:37;;;;;;;21.17;12.02;;;;;;;14.24;100.00;101949.03;6242972;22;20011;-67
2023/10/02 01:51:20;;;;;;;17.00;11.50;;;;;;;14.23;100.00;101947.31;6219495;23;20031;-67
2023/10/02 01:54:03;;;;;;;17.50;12.07;;;;;;;14.21;100.00;101952.59;6244118;23;20008;-67
2023/10/02 01:56:30;;;;;;;17.52;12.27;;;;;;;14.19;100.00;101957.88;6244269;23;20102;-67
2023/10/02 01:59:10;;;;;;;17.52;11.77;;;;;;;14.13;100.00;101952.66;6243492;22;20115;-67
2023/10/02 02:01:52;;;;;;;20.58;12.77;;;;;;;14.07;100.00;101950.06;6221148;23;20004;-67
2023/10/02 02:04:28;;;;;;;17.00;11.65;;;;;;;14.09;100.00;101956.19;6243190;23;20004;-67
2023/10/02 02:06:58;;;;;;;17.75;11.60;;;;;;;14.07;100.00;101952.72;6243229;23;20091;-67
2023/10/02 02:09:30;;;;;;;18.80;12.85;;;;;;;14.10;100.00;101952.69;6243582;22;20511;-67
2023/10/02 02:12:05;;;;;;;15.88;11.20;;;;;;;14.06;100.00;101950.94;6243054;23;20094;-67
2023/10/02 02:14:49;;;;;;;20.02;12.88;;;;;;;14.14;100.00;101948.28;6243211;23;20296;-67
2023/10/02 02:17:17;;;;;;;19.45;12.75;;;;;;;14.13;100.00;101944.75;6243341;22;20591;-67
2023/10/02 02:19:48;;;;;;;20.83;12.63;;;;;;;14.16;100.00;101947.34;6243526;23;20012;-67
2023/10/02 02:22:17;;;;;;;16.23;12.20;;;;;;;14.13;100.00;101944.75;6219383;23;20023;-68
2023/10/02 02:24:47;;;;;;;17.45;11.60;;;;;;;14.14;100.00;101951.75;6218804;23;20082;-67
2023/10/02 02:27:21;;;;;;;19.60;12.73;;;;;;;14.15;100.00;101936.81;6243926;22;20004;-68
2023/10/02 02:29:48;;;;;;;17.42;12.07;;;;;;;14.14;100.00;101941.22;6219769;23;20277;-67
2023/10/02 02:32:16;;;;;;;17.88;12.23;;;;;;;14.16;100.00;101942.06;6243706;23;20008;-67
2023/10/02 02:34:41;;;;;;;18.42;11.90;;;;;;;14.14;100.00;101943.84;6218216;23;20011;-67
2023/10/02 02:37:08;;;;;;;21.08;11.93;;;;;;;14.10;100.00;101934.22;6243270;22;20012;-68
2023/10/02 02:39:37;;;;;;;17.60;11.73;;;;;;;14.12;100.00;101942.13;6194071;23;20036;-67
2023/10/02 02:42:09;;;;;;;19.15;11.80;;;;;;;14.10;100.00;101944.78;6219175;23;20008;-67
2023/10/02 02:44:46;;;;;;;19.95;12.45;;;;;;;14.08;100.00;101943.03;6219149;23;20438;-67
2023/10/02 02:47:22;;;;;;;18.77;12.95;;;;;;;14.04;100.00;101935.16;6218444;22;20418;-67
2023/10/02 02:49:51;;;;;;;19.73;12.23;;;;;;;14.08;100.00;101935.13;6243727;23;20497;-67
2023/10/02 02:52:24;;;;;;;19.75;13.15;;;;;;;14.06;100.00;101934.28;6243326;23;20058;-67
2023/10/02 02:54:58;;;;;;;18.85;13.10;;;;;;;14.02;100.00;101928.13;6243547;23;20354;-70
2023/10/02 02:57:26;;;;;;;18.58;12.57;;;;;;;14.02;100.00;101922.88;6242971;22;20430;-70
2023/10/02 03:00:24;;;;;;;16.63;11.95;;;;;;;14.03;100.00;101917.59;6243243;23;20000;-69
2023/10/02 03:02:44;;;;;;;21.00;13.35;;;;;;;14.02;100.00;101920.22;6243155;23;20012;-70
2023/10/02 03:05:11;;;;;;;20.40;12.80;;;;;;;13.99;100.00;101915.00;6218613;23;20019;-70
2023/10/02 03:07:39;;;;;;;17.45;12.52;;;;;;;14.01;100.00;101921.16;6243004;22;20000;-70
2023/10/02 03:10:10;;;;;;;19.63;12.38;;;;;;;13.97;100.00;101920.28;6229309;22;20020;-66
2023/10/02 03:12:42;;;;;;;19.27;12.63;;;;;;;13.94;100.00;101917.69;6193831;23;20012;-66
2023/10/02 03:15:12;;;;;;;18.65;12.43;;;;;;;13.98;100.00;101918.53;6194058;23;20015;-66
2023/10/02 03:17:41;;;;;;;20.08;13.13;;;;;;;13.99;100.00;101907.97;6163333;23;20031;-66
2023/10/02 03:20:32;;;;;;;20.80;13.35;;;;;;;14.00;100.00;101911.47;6163356;23;20075;-66
2023/10/02 03:22:57;;;;;;;20.65;12.77;;;;;;;14.04;100.00;101905.31;6191066;23;20023;-68
2023/10/02 03:25:28;;;;;;;17.73;12.02;;;;;;;14.00;100.00;101900.94;6214721;23;20070;-68
2023/10/02 03:27:57;;;;;;;19.90;13.15;;;;;;;13.98;100.00;101900.97;6212282;23;20035;-65
2023/10/02 03:30:38;;;;;;;21.15;13.50;;;;;;;14.03;100.00;101895.63;6185316;23;20366;-66
2023/10/02 03:33:17;;;;;;;20.70;12.07;;;;;;;14.04;100.00;101895.63;6187280;23;20195;-66
2023/10/02 03:35:58;;;;;;;17.52;12.05;;;;;;;14.05;100.00;101899.16;6189893;23;20036;-66
2023/10/02 03:38:34;;;;;;;18.17;11.25;;;;;;;13.99;100.00;101899.19;6212713;23;20382;-66
2023/10/02 03:41:01;;;;;;;21.98;12.88;;;;;;;14.03;100.00;101899.13;6163924;23;20011;-66
2023/10/02 03:43:34;;;;;;;16.83;11.68;;;;;;;14.03;100.00;101903.53;6162747;23;20016;-66
2023/10/02 03:46:04;;;;;;;20.38;12.10;;;;;;;14.00;100.00;101901.81;6212223;23;20423;-66
2023/10/02 03:48:29;;;;;;;18.08;11.57;;;;;;;13.89;100.00;101890.47;6187605;23;20082;-66
2023/10/02 03:50:56;;;;;;;19.98;12.80;;;;;;;14.00;100.00;101895.66;6163062;23;20411;-66
2023/10/02 03:53:32;;;;;;;20.75;12.55;;;;;;;14.07;100.00;101896.50;6187243;23;20009;-66
2023/10/02 03:56:33;;;;;;;19.27;12.55;;;;;;;14.03;100.00;101907.03;6212103;23;20009;-66
2023/10/02 03:58:44;;;;;;;17.90;11.65;;;;;;;14.01;100.00;101902.69;6212434;23;20016;-66
2023/10/02 04:01:10;;;;;;;16.77;11.45;;;;;;;13.94;100.00;101904.50;6162465;23;20461;-66
2023/10/02 04:03:53;;;;;;;19.17;12.02;;;;;;;13.91;100.00;101895.75;6186969;23;20008;-66
2023/10/02 04:06:33;;;;;;;18.17;12.15;;;;;;;13.96;100.00;101907.13;6187600;23;20004;-66
2023/10/02 04:09:49;;;;;;;17.88;11.73;;;;;;;13.88;100.00;101903.66;6212470;23;20028;-66
2023/10/02 04:11:45;;;;;;;18.92;12.35;;;;;;;13.91;100.00;101898.41;6176698;23;20012;-66
2023/10/02 04:14:18;;;;;;;15.75;11.00;;;;;;;13.92;100.00;101898.38;6161961;23;20012;-66
2023/10/02 04:16:49;;;;;;;22.23;12.32;;;;;;;13.84;100.00;101903.69;6212707;23;20000;-66
2023/10/02 04:19:24;;;;;;;20.58;12.27;;;;;;;13.86;100.00;101901.06;6186544;23;20103;-66
2023/10/02 04:21:56;;;;;;;19.83;12.15;;;;;;;13.83;100.00;101898.44;6187126;23;20046;-66
2023/10/02 04:24:24;;;;;;;17.23;11.95;;;;;;;13.85;100.00;101897.56;6186296;23;20079;-66
2023/10/02 04:26:54;;;;;;;19.63;11.68;;;;;;;13.77;100.00;101898.50;6187495;23;20031;-66
2023/10/02 04:29:29;;;;;;;19.45;11.73;;;;;;;13.78;100.00;101901.13;6186607;23;20023;-66
2023/10/02 04:35:02;;;;;;;19.60;12.75;;;;;;;13.91;100.00;101898.41;6215012;23;20142;-66
2023/10/02 04:37:26;;;;;;;20.58;12.60;;;;;;;13.93;100.00;101886.06;6193146;23;20342;-66
2023/10/02 04:45:20;;;;;;;19.00;11.60;;;;;;;13.95;100.00;101894.81;6192861;23;20043;-68
2023/10/02 04:47:47;;;;;;;19.05;11.93;;;;;;;13.96;100.00;101896.59;6188304;23;20032;-68
2023/10/02 04:53:00;;;;;;;19.83;13.07;;;;;;;13.89;100.00;101892.25;6226103;23;20036;-68
2023/10/02 04:55:41;;;;;;;20.33;12.27;;;;;;;13.90;100.00;101897.50;6214021;23;20075;-67
2023/10/02 04:58:19;;;;;;;17.77;12.02;;;;;;;13.89;100.00;101898.38;6188995;23;20015;-67
2023/10/02 05:03:36;;;;;;;17.95;12.27;;;;;;;13.79;100.00;101887.06;6192059;23;20074;-68
2023/10/02 05:06:03;;;;;;;21.13;13.10;;;;;;;13.81;100.00;101885.28;6188770;23;20000;-67
2023/10/02 05:08:40;;;;;;;17.90;11.43;;;;;;;13.85;100.00;101881.75;6163407;23;20016;-67
2023/10/02 05:11:08;;;;;;;16.92;11.90;;;;;;;13.84;100.00;101887.03;6187372;23;20020;-67
2023/10/02 05:16:32;;;;;;;19.40;11.98;;;;;;;13.76;100.00;101892.34;6222537;23;20047;-67
2023/10/02 05:18:58;;;;;;;20.67;12.23;;;;;;;13.73;100.00;101884.47;6187519;23;20039;-67
2023/10/02 05:21:36;;;;;;;18.08;12.40;;;;;;;13.69;100.00;101883.63;6213742;23;20012;-66
2023/10/02 05:24:11;;;;;;;20.25;12.25;;;;;;;13.68;100.00;101883.66;6188144;23;20016;-67
2023/10/02 05:26:43;;;;;;;20.63;12.50;;;;;;;13.68;100.00;101889.78;6214936;23;20015;-67
2023/10/02 05:29:17;;;;;;;23.83;13.90;;;;;;;13.69;100.00;101894.19;6213217;23;20012;-67
2023/10/02 05:31:43;;;;;;;21.17;13.10;;;;;;;13.64;100.00;101890.69;6188039;23;20016;-68
2023/10/02 05:34:34;;;;;;;19.27;11.93;;;;;;;13.60;100.00;101902.13;6186634;23;20012;-68
2023/10/02 05:39:42;;;;;;;23.33;13.95;;;;;;;13.65;100.00;101904.75;6223640;23;20019;-68
2023/10/02 05:42:15;;;;;;;19.90;13.07;;;;;;;13.59;100.00;101896.88;6212374;23;20387;-69
2023/10/02 05:44:42;;;;;;;20.00;13.40;;;;;;;13.62;100.00;101902.13;6187229;23;20043;-69
2023/10/02 05:47:09;;;;;;;22.25;13.02;;;;;;;13.62;100.00;101910.00;6163044;23;20035;-68
2023/10/02 05:49:47;;;;;;;21.10;13.93;;;;;;;13.59;100.00;101896.88;6188352;23;20044;-68
2023/10/02 05:52:23;;;;;;;18.63;12.70;;;;;;;13.64;100.00;101911.75;6187598;23;20016;-68
2023/10/02 05:54:54;;;;;;;17.95;12.02;;;;;;;13.59;100.00;101910.03;6187930;23;20369;-68
2023/10/02 05:57:20;;;;;;;18.33;13.00;;;;;;;13.64;100.00;101916.16;6213718;23;20005;-68
2023/10/02 05:59:48;;;;;;;20.55;13.30;;;;;;;13.63;100.00;101920.56;6213479;23;20091;-68
2023/10/02 06:02:22;;;;;;;18.60;13.52;;;;;;;13.76;100.00;101918.69;6213683;23;20004;-68
2023/10/02 06:05:07;;;;;;;19.33;13.10;;;;;;;13.80;100.00;101916.91;6188622;23;20013;-68
2023/10/02 06:07:46;;;;;;;21.48;14.15;;;;;;;13.86;100.00;101920.38;6189711;23;20004;-68
2023/10/02 06:10:25;;;;;;;17.90;12.45;;;;;;;13.98;100.00;101921.19;6188183;23;20016;-68
2023/10/02 06:13:03;;;;;;;21.10;13.45;;;;;;;14.07;100.00;101915.81;6213476;23;20054;-68
2023/10/02 06:15:48;;;;;;;20.20;12.98;;;;;;;14.18;100.00;101918.34;6212453;23;20159;-68
2023/10/02 06:18:30;;;;;;;21.23;13.60;;;;;;;14.32;100.00;101915.56;6211831;23;20027;-68
2023/10/02 06:21:03;;;;;;;18.83;12.20;;;;;;;14.53;100.00;101919.75;6190350;23;20020;-68
2023/10/02 06:23:37;;;;;;;20.65;12.98;;;;;;;14.85;100.00;101918.53;6213241;23;20418;-68
2023/10/02 06:26:04;;;;;;;17.75;12.25;;;;;;;15.15;100.00;101911.09;6212535;23;20036;-68
2023/10/02 06:28:30;;;;;;;20.00;12.68;;;;;;;15.39;100.00;101913.38;6187945;23;20007;-68
2023/10/02 06:30:56;;;;;;;20.33;13.18;;;;;;;15.52;100.00;101922.00;6163210;23;20008;-68
2023/10/02 06:33:21;;;;;;;16.50;11.38;;;;;;;15.69;100.00;101921.75;6162893;23;20342;-68
2023/10/02 06:36:00;;;;;;;18.40;12.50;;;;;;;15.79;100.00;101927.78;6188139;23;20015;-68
2023/10/02 06:38:32;;;;;;;20.02;12.95;;;;;;;15.77;100.00;101922.50;6189618;23;20490;-68
2023/10/02 06:40:59;;;;;;;19.70;12.52;;;;;;;15.94;100.00;101922.22;6163476;23;20063;-68
2023/10/02 06:43:29;;;;;;;18.20;12.20;;;;;;;16.27;100.00;101930.47;6188241;23;20008;-67
2023/10/02 06:46:13;;;;;;;;;;;;;;;16.88;100.00;101932.00;6188085;23;20001;-67
2023/10/02 06:48:43;;;;;;;19.95;12.50;;;;;;;16.58;96.80;101929.06;6213849;23;19931;-67
2023/10/02 06:51:10;;;;;;;19.50;13.40;;;;;;;16.79;95.20;101922.44;6213111;23;20442;-67
2023/10/02 06:53:40;;;;;;;18.90;12.93;;;;;;;17.07;93.89;101928.06;6188086;23;20430;-67
2023/10/02 06:56:13;;;;;;;18.80;12.00;;;;;;;17.38;92.14;101931.81;6188970;23;20016;-67
2023/10/02 06:58:56;;;;;;;18.30;12.02;;;;;;;17.42;92.04;101936.13;6163695;23;20016;-67
2023/10/02 07:01:28;;;;;;;18.20;12.77;;;;;;;17.86;90.51;101936.84;6186259;23;20013;-67
2023/10/02 07:03:56;;;;;;;21.05;13.30;;;;;;;18.15;88.72;101938.78;6213422;23;20032;-67
2023/10/02 07:06:24;;;;;;;22.17;12.60;;;;;;;18.69;86.37;101941.75;6214907;23;20005;-67
2023/10/02 07:09:10;;;;;;;18.70;12.30;;;;;;;19.00;82.95;101931.16;6188125;23;20368;-67
2023/10/02 07:11:45;;;;;;;19.27;12.55;;;;;;;19.28;82.90;101930.31;6215227;22;20343;-67
2023/10/02 07:14:12;;;;;;;17.50;11.80;;;;;;;19.28;81.41;101924.13;6193241;23;20345;-68
2023/10/02 07:21:47;;;;;;;17.48;12.13;;;;;;;18.49;85.17;101934.38;6262001;22;20047;-68
2023/10/02 07:27:02;;;;;;;20.10;13.13;;;;;;;18.75;84.44;101927.44;6306465;22;20090;-69
2023/10/02 08:35:24;;;;;;;21.50;13.20;;;;;;;19.81;88.27;101937.53;6244352;22;20077;-69
2023/10/02 08:37:54;;;;;;;19.65;12.98;;;;;;;20.45;84.12;101938.88;6218036;23;20102;-67
2023/10/02 08:40:19;;;;;;;20.90;13.40;;;;;;;21.04;82.91;101936.75;6170992;23;20019;-69
2023/10/02 08:42:46;;;;;;;19.48;13.10;;;;;;;21.21;78.13;101944.09;6193558;23;20381;-69
2023/10/02 08:45:20;;;;;;;20.35;13.55;;;;;;;22.30;73.80;101949.44;6218406;23;20004;-69
2023/10/02 08:47:47;;;;;;;18.15;12.60;;;;;;;23.98;70.17;101943.44;6244183;22;20008;-68
2023/10/02 08:50:16;;;;;;;19.88;13.00;;;;;;;25.98;64.64;101941.47;6217731;23;20008;-67
2023/10/02 08:52:50;;;;;;;17.35;12.23;;;;;;;26.61;59.02;101940.34;6193479;23;20004;-67
2023/10/02 08:56:21;;;;;;;18.05;12.73;;;;;;;26.16;61.52;101939.53;6194472;23;20027;-69
2023/10/02 08:58:15;;;;;;;19.83;12.60;;;;;;;25.24;63.07;101930.47;6223044;22;20091;-68
2023/10/02 09:01:17;;;;;;;21.33;13.18;;;;;;;24.93;66.63;101937.56;6218002;23;20004;-67
2023/10/02 09:06:41;;;;;;;19.00;12.48;;;;;;;23.32;68.12;101923.47;6244941;23;20073;-69
2023/10/02 09:09:17;;;;;;;18.95;12.77;;;;;;;22.79;68.94;101915.22;6217626;23;20007;-69
2023/10/02 09:11:51;;;;;;;20.13;13.00;;;;;;;22.59;71.33;101917.94;6194472;23;20012;-69
2023/10/02 09:14:39;;;;;;;19.80;12.63;;;;;;;22.04;71.67;101922.06;6217062;23;20004;-68
2023/10/02 09:17:22;;;;;;;17.52;12.38;;;;;;;21.64;73.28;101913.09;6217778;22;20334;-68
2023/10/02 09:19:53;;;;;;;19.58;13.02;;;;;;;21.46;75.56;101909.31;6219672;23;20137;-67
2023/10/02 09:22:20;;;;;;;19.35;12.95;;;;;;;21.23;76.79;101920.91;6219468;23;20011;-68
2023/10/02 09:24:58;;;;;;;20.10;12.70;;;;;;;21.08;78.60;101915.25;6194533;23;20019;-68
2023/10/02 09:27:27;;;;;;;18.85;12.40;;;;;;;21.09;78.85;101916.16;6219364;23;20000;-69
2023/10/02 09:30:17;;;;;;;19.00;11.82;;;;;;;21.07;80.49;101921.50;6194920;23;20086;-69
2023/10/02 09:32:49;;;;;;;;;;;;;;;21.37;79.43;101918.56;6219554;23;20004;-69
2023/10/02 09:35:22;;;;;;;17.55;12.32;;;;;;;20.88;80.76;101908.03;6246083;23;20287;-69
2023/10/02 09:37:55;;;;;;;21.35;12.82;;;;;;;20.75;79.72;101904.09;6219030;23;20094;-68
2023/10/02 09:43:22;;;;;;;19.35;12.73;;;;;;;20.94;82.50;101906.94;6246722;23;20139;-69
2023/10/02 09:45:48;;;;;;;17.48;13.23;;;;;;;21.15;82.53;101909.69;6219085;23;20004;-67
2023/10/02 09:48:57;;;;;;;20.42;13.23;;;;;;;20.92;80.86;101904.31;6218525;23;20000;-67
2023/10/02 09:51:37;;;;;;;19.23;13.20;;;;;;;20.63;81.79;101908.06;6219378;23;20011;-67
2023/10/02 09:54:17;;;;;;;;;;;;;;;20.93;81.34;101906.06;6219777;23;20004;-69
2023/10/02 09:59:53;;;;;;;21.65;13.52;;;;;;;20.42;83.57;101905.25;6219015;23;20011;-69
2023/10/02 10:07:52;;;;;;;21.17;13.88;;;;;;;21.39;80.90;101907.84;6226494;23;20301;-67
2023/10/02 10:10:29;;;;;;;20.27;13.15;;;;;;;21.56;79.05;101909.84;6218810;23;20430;-68
2023/10/02 10:12:58;;;;;;;21.35;13.73;;;;;;;21.85;78.22;101910.44;6218536;23;20014;-67
2023/10/02 10:15:25;;;;;;;21.45;14.60;;;;;;;21.91;76.05;101915.50;6217906;23;20019;-67
2023/10/02 10:17:51;;;;;;;20.90;13.80;;;;;;;21.93;75.72;101911.84;6168532;23;20004;-67
2023/10/02 10:20:25;;;;;;;21.60;13.98;;;;;;;22.27;74.44;101898.84;6218174;23;20049;-67
2023/10/02 10:22:57;;;;;;;20.65;13.07;;;;;;;22.56;75.24;101897.56;6218385;23;20004;-67
2023/10/02 10:25:22;;;;;;;23.77;14.95;;;;;;;22.98;74.91;101892.97;6193687;23;20062;-67
2023/10/02 10:27:55;;;;;;;22.17;14.25;;;;;;;22.75;71.98;101896.72;6218200;23;20004;-67
2023/10/02 10:35:51;;;;;;;20.92;13.27;;;;;;;22.75;73.75;101892.22;6244519;23;20030;-67
2023/10/02 10:38:31;;;;;;;18.92;12.98;;;;;;;22.75;72.42;101894.91;6218458;23;20012;-67
2023/10/02 10:41:06;;;;;;;;;;;;;;;23.77;75.75;101898.03;6219139;23;20008;-67
2023/10/02 10:51:44;;;;;;;21.03;13.67;;;;;;;23.74;71.84;101881.28;6167100;23;20071;-68
2023/10/02 10:54:30;;;;;;;19.42;12.93;;;;;;;23.67;73.11;101880.72;6192964;23;20696;-69
2023/10/02 10:57:18;;;;;;;22.83;13.90;;;;;;;23.48;69.28;101881.66;6195980;22;20015;-68
2023/10/02 10:59:45;;;;;;;19.25;12.95;;;;;;;23.35;71.66;101875.19;6217662;23;20104;-69
2023/10/02 11:02:16;;;;;;;20.13;12.98;;;;;;;23.20;71.00;101875.94;6168865;23;20012;-68
2023/10/02 11:04:49;;;;;;;20.45;13.68;;;;;;;23.04;73.50;101873.09;6194086;23;20315;-68
2023/10/02 11:07:19;;;;;;;21.85;13.57;;;;;;;22.80;72.97;101867.97;6217997;22;20024;-68
2023/10/02 11:13:01;;;;;;;19.90;12.75;;;;;;;22.88;77.46;101867.63;6151732;23;20344;-68
2023/10/02 11:15:47;;;;;;;20.08;13.15;;;;;;;23.01;77.39;101866.09;6200290;23;20083;-68
2023/10/02 11:18:21;;;;;;;21.65;13.07;;;;;;;22.88;76.01;101864.94;6217182;23;20008;-68
2023/10/02 11:20:55;;;;;;;21.60;13.70;;;;;;;22.77;75.22;101855.63;6217751;23;20073;-69
2023/10/02 11:23:37;;;;;;;21.27;13.70;;;;;;;22.68;75.36;101853.38;6192825;23;20460;-68
2023/10/02 11:26:11;;;;;;;19.35;13.32;;;;;;;22.73;76.12;101848.69;6218256;23;20038;-69
2023/10/02 11:28:37;;;;;;;20.10;13.57;;;;;;;22.77;76.34;101846.72;6194359;23;20012;-67
2023/10/02 11:31:29;;;;;;;20.83;12.75;;;;;;;22.82;76.65;101847.41;6217818;23;20028;-67
2023/10/02 11:34:11;;;;;;;18.15;12.15;;;;;;;22.93;76.69;101841.53;6244080;23;20022;-68
2023/10/02 11:36:39;;;;;;;18.20;12.27;;;;;;;22.94;74.54;101843.25;6217938;23;20346;-67
2023/10/02 11:39:09;;;;;;;19.50;12.43;;;;;;;23.01;75.33;101839.34;6217644;23;20012;-68
2023/10/02 11:41:39;;;;;;;19.90;12.45;;;;;;;23.12;73.99;101836.22;6217295;23;20012;-68
2023/10/02 11:44:14;;;;;;;20.17;12.50;;;;;;;23.30;74.77;101832.63;6192067;23;20018;-68
2023/10/02 11:46:41;;;;;;;19.33;12.38;;;;;;;23.53;72.73;101828.78;6196968;23;20432;-68
2023/10/02 11:49:07;;;;;;;18.65;11.93;;;;;;;23.78;73.22;101832.88;6191792;23;20004;-67
2023/10/02 11:51:33;;;;;;;19.70;12.25;;;;;;;23.79;68.98;101831.06;6217286;23;20331;-68
2023/10/02 11:54:01;;;;;;;18.10;12.13;;;;;;;23.74;69.24;101839.31;6192467;23;20008;-67
2023/10/02 11:56:27;;;;;;;17.77;12.20;;;;;;;23.84;70.42;101829.00;6217578;23;20028;-67
2023/10/02 11:58:53;;;;;;;19.13;11.70;;;;;;;23.73;69.45;101826.88;6217539;23;20004;-67
2023/10/02 12:01:26;;;;;;;15.65;11.27;;;;;;;23.87;70.96;101821.72;6191752;23;20169;-67
2023/10/02 12:03:56;;;;;;;18.02;10.75;;;;;;;24.11;73.36;101815.16;6216689;23;20008;-67
2023/10/02 12:06:24;;;;;;;18.25;12.00;;;;;;;24.03;69.81;101818.22;6217044;23;20007;-67
2023/10/02 12:08:50;;;;;;;19.40;11.57;;;;;;;23.89;70.40;101812.75;6217296;23;20032;-67
2023/10/02 12:11:15;;;;;;;17.52;11.30;;;;;;;23.75;69.76;101808.06;6192515;23;20012;-67
2023/10/02 12:13:44;;;;;;;17.83;10.40;;;;;;;23.76;70.43;101808.03;6217420;23;20430;-68
2023/10/02 12:16:13;;;;;;;18.23;11.38;;;;;;;23.65;70.58;101813.91;6192100;23;20018;-68
2023/10/02 12:18:40;;;;;;;18.20;11.40;;;;;;;23.60;71.06;101804.41;6216682;23;20011;-67
2023/10/02 12:21:09;;;;;;;17.17;11.23;;;;;;;23.56;71.77;101808.16;6168326;23;20466;-67
2023/10/02 12:23:39;;;;;;;16.40;11.13;;;;;;;23.44;71.52;101805.16;6193102;23;20090;-68
2023/10/02 12:26:07;;;;;;;;;;;;;;;23.71;72.63;101799.34;6169725;23;20428;-69
2023/10/02 12:28:37;;;;;;;17.42;11.25;;;;;;;23.42;73.43;101803.50;6217395;23;19904;-68
2023/10/02 12:31:10;;;;;;;17.95;12.13;;;;;;;23.54;73.61;101794.88;6193012;23;20015;-69
2023/10/02 12:33:38;;;;;;;15.48;10.70;;;;;;;23.75;73.61;101792.91;6191909;23;20087;-69
2023/10/02 12:36:15;;;;;;;18.52;11.63;;;;;;;23.87;73.93;101796.78;6217732;23;20000;-68
2023/10/02 12:38:41;;;;;;;16.85;11.80;;;;;;;23.92;71.89;101791.16;6192505;23;20008;-68
2023/10/02 12:41:16;;;;;;;16.08;11.48;;;;;;;23.79;71.39;101791.78;6192081;23;20091;-68
2023/10/02 12:43:43;;;;;;;16.48;11.07;;;;;;;23.78;73.16;101782.03;6217284;23;20338;-68
2023/10/02 12:46:14;;;;;;;19.38;12.05;;;;;;;23.78;72.04;101781.19;6167106;23;20016;-69
2023/10/02 12:48:46;;;;;;;17.40;11.07;;;;;;;23.92;73.08;101781.34;6215534;23;20008;-67
2023/10/02 12:51:15;;;;;;;19.05;12.18;;;;;;;23.89;71.29;101781.47;6216449;23;20342;-68
2023/10/02 12:53:45;;;;;;;16.10;11.67;;;;;;;23.82;69.46;101778.25;6245798;23;20034;-68
2023/10/02 12:56:22;;;;;;;18.48;11.65;;;;;;;23.81;70.23;101775.66;6217219;23;20584;-68
2023/10/02 12:58:50;;;;;;;15.93;11.38;;;;;;;23.68;70.62;101768.25;6218606;23;20012;-68
2023/10/02 13:01:17;;;;;;;17.60;12.05;;;;;;;23.63;69.69;101764.97;6218194;23;20039;-68
2023/10/02 13:03:42;;;;;;;17.13;11.13;;;;;;;23.82;70.23;101758.63;6218735;23;20386;-68
2023/10/02 13:06:12;;;;;;;17.98;11.80;;;;;;;23.95;68.77;101759.75;6193705;23;20070;-68
2023/10/02 13:08:41;;;;;;;18.27;12.00;;;;;;;24.21;68.12;101752.13;6194705;23;20012;-68
2023/10/02 13:11:10;;;;;;;18.98;12.15;;;;;;;24.19;68.54;101751.31;6218526;23;20091;-68
2023/10/02 13:13:36;;;;;;;17.88;11.15;;;;;;;24.14;69.19;101751.59;6218687;23;20066;-68
2023/10/02 13:16:01;;;;;;;16.58;11.60;;;;;;;24.04;68.58;101739.66;6193813;23;20460;-68
2023/10/02 13:18:27;;;;;;;16.70;11.55;;;;;;;24.29;69.49;101739.16;6168146;23;20018;-68
2023/10/02 13:20:55;;;;;;;19.23;11.52;;;;;;;24.73;72.04;101737.63;6193078;23;20066;-68
2023/10/02 13:23:22;;;;;;;18.23;11.75;;;;;;;24.71;67.67;101742.22;6218734;23;20042;-68
2023/10/02 13:25:48;;;;;;;17.45;12.02;;;;;;;24.75;69.43;101738.41;6219237;23;20007;-68
2023/10/02 13:28:13;;;;;;;18.75;12.07;;;;;;;24.63;68.76;101736.44;6194140;23;20000;-68
2023/10/02 13:30:41;;;;;;;19.00;13.07;;;;;;;24.69;68.46;101736.09;6192507;23;20092;-68
2023/10/02 13:33:07;;;;;;;18.88;11.75;;;;;;;24.67;69.55;101730.81;6218096;23;20430;-68
2023/10/02 13:35:38;;;;;;;17.00;11.68;;;;;;;24.61;67.84;101728.50;6240258;23;20031;-68
2023/10/02 13:38:04;;;;;;;15.43;10.60;;;;;;;24.48;66.95;101722.94;6218723;23;20019;-68
2023/10/02 13:40:32;;;;;;;19.13;11.20;;;;;;;24.32;67.64;101724.72;6218425;23;20031;-68